Terminal Aerodrome Forecast
Issued by NWS San Angelo, TX

Home | Current Version | Previous Version | Text Only | Print | Product List | Glossary On
Versions: 1 2 3 4 5 6 7 8 9 10 11 12 13 14 15
000
FTUS44 KSJT 261700
TAFABI
TAF
KABI 261723Z 2618/2718 21008KT P6SM BKN110
     FM262100 16018G26KT P6SM BKN110
      TEMPO 2621/2701 P6SM TS BKN050CB
     FM270300 21012G18KT P6SM SCT100
     FM271200 20008KT P6SM BKN250=

USA.gov is the U.S. government's official web portal to all federal, state and local government web resources and services.